SMRA30 UAOL 191500
AAXX 19151

=
30230 419// 20000 11463 21499 30048 40446 52009 71000 80001=
30252 419// 30000 11401 21428 30072 40442 51011 74800 80001=
30309 419// 50000 11351 21389 39800 40400 52010 77171 80001=
30337 419// 00000 11432 21469 39902 40439 52008 71000=
30372 42999 82401 11353 21395 39388 40385 52011 80007=
30393 41998 83303 11365 21382 39159 40354 52010 77172 82035=
30405 429// 02101 11382 21424 39795 40413 52012=
30433 429// 03202 11314 21370 39715 40389 52004=
30499 41997 80301 11289 21341 39540 40266 52007 77172 8802/=
30504 419// 83401 11268 21302 39657 40378 52006 77172 8802/=
30521 429// 50000 11405 21457 39809 40428 52006 80001=
30554 429// 23201 11369 21409 39115 40370 52015 80001=
30603 419// 80000 11275 21310 39739 40376 52004 77172 80007=
30612 429// 52301 11327 21367 39786 40394 52004 80005=
30622 419// 00000 11414 21463 39671 40437 52006 74440=
30627 42999 00202 11314 21355 39341 40391 52003=
30635 429// 00801 11340 21376 39730 40387 52004=
30636 429// 02101 11334 21369 39692 40387 52010=
30673 419// 83203 11259 21318 39412 40253 52015 77172 8802/=
30683 415// 83402 11238 21300 39518 40219 52011 78582 889//=
30703 429// 80000 11254 21278 39622 40366 50002 8807/=
30710 429// 50801 11259 21296 39723 40370 52002 80005=
30758 42984 01102 11297 21361 39410 40331 52015=
30764 42/// /3402 11237 21291 39410 40270 52018=
30802 42799 22601 11282 21319 38678 48452 50001 82500=
30823 41998 01101 11276 21314 39657 40368 52008 70400=
30846 42/// /2703 11261 21331 39340 40340 52016=
30859 42999 02906 11253 21334 39385 40299 50012 333 91112=
30862 41975 82503 11252 21289 39462 40266 52015 77172 8802/=
30879 429// 01301 11281 21316 39394 40234 52006=
30935 42999 02801 11319 21346 39328 40391 52007=
30949 429// 02002 11240 21336 39129 40323 52012=
30957 429// 00402 11231 21324 39339 40311 52012=
30965 429// 03105 11266 21340 39365 40275 54001=
31004 41997 80000 11382 21403 39410 40378 52010 77172 80007=
31054 42999 00000 11429 21456 30007 40327 52014=
31088 42599 80105 11262 21328 30214 40222 57009 82536=
31123 42998 00000 11422 21450 39956 40337 52013=
31137 42999 30000 11461 21474 39138 40370 52006 80001=
31168 41999 50000 11223 21251 30214 40222 57005 70272 80001=
31253 41996 83401 11260 21287 39717 40217 57004 77172 8802/=
31295 41999 80204 11233 21251 39690 40181 52002 72272 82037=
31300 41997 80502 11219 21270 39871 40187 52001 77173 8802/=
31329 41999 80801 11290 21324 39487 40227 57004 70224 80005=
31348 41997 83301 11315 21347 30026 40245 54001 77172 8802/=
31369 42998 03402 11299 21338 30144 40210 57009=
31416 41998 83401 11279 21311 30118 40221 57003 77072 8802/=
31418 41998 80000 11246 21279 39951 40229 57004 77172 80007=
31439 42999 00000 11281 21318 30166 40215 57006=
31445 41945 81001 11184 21207 39872 40139 57010 77172 80007=
31474 41997 80000 11226 21258 39671 40191 57012 77172 80007=
31484 42999 00901 11242 21268 39852 40220 57003=
31510 419// 52703 11206 21233 39909 40138 57008 70272 80001=
31538 42998 83601 11218 21240 39705 40166 57009 80006=
31707 42598 83102 11218 21238 30067 40166 54000 8657/=
31770 41559 82702 11197 21220 30171 40200 58003 77172 8852/=
31873 42997 02503 11141 21170 30023 40157 52001=
31909 42998 03102 11145 21207 30097 40180 57013=
31960 41397 81504 11039 21043 39932 40171 58003 72272 8802/=
31961 42498 31804 11035 21051 30121 40166 58002 83600=
32012 19151 99194 50851 46/// ///// 1//// 91450 22200 10704 70019=
32389 42999 60000 11241 21275 30156 40197 57006 86030=
32408 42/// /3603 11182 21230 30146 40177 57003=
32477 42998 80000 11138 21175 30081 40114 57013 8805/=
32509 42598 83504 11063 21120 30111 40146 57010 885//=
32562 41597 80503 11098 21109 30061 40100 57013 78582 889//=
32594 41496 80403 11051 21062 30031 40067 58023 78582 889//=
33008 /1419 82804 11011 21015 39835 40016 52043 77372 8872/ 333 86710 91111 555 60038=
33019 /1336 82902 10003 21005 39805 49980 52018 77177 8872/ 333 86708 555 60028=
33027 /1596 81502 10006 21005 39818 49985 53006 78582 8697/ 555 60028=
33038 /1597 81703 11007 21026 39839 40015 53006 72682 883// 555 69908=
33041 /1359 81504 11005 21020 39870 40027 53008 77172 885// 333 88708 555 69908=
33088 41595 82505 10004 21004 39812 40004 52021 78688 889// 555 1/000=
33124 32566 81401 11004 21025 39874 40018 53007 885//=
33135 413// 81502 11004 21016 39887 40036 53009 71022 886// 333 88708 555 1/100=
33177 42598 82707 10010 21016 39794 40033 52033 889// 555 1/100=
33187 42497 72710 10014 21030 40018 52018 87300 555 1/000=
33261 41396 81503 11028 21038 39878 40065 52010 77173 8772/ 333 87706 555 1/103=
33275 41497 81507 11057 21079 39861 40093 52009 73673 886// 333 88713 555 1/105=
33287 42581 72806 10016 21038 40059 52028 87500 555 1/100=
33301 41597 82612 10007 21028 39740 40024 52019 70282 883// 333 84627 555 1/000=
33317 42497 62906 10006 21017 39696 40035 52018 85530 333 85616 555 1/102=
33325 41497 82502 10010 21007 39763 40032 52013 72272 83679 555 1/000=
33345 41597 82003 11008 21015 39836 40044 53014 70272 885// 555 1/102=
33377 41394 81603 11004 21007 39875 40072 53016 71022 886// 333 88709 555 1/100=
33393 42660 62906 10015 21046 39673 40067 52028 86500 333 86637 555 1/000=
33398 42598 72305 10033 21042 40073 52026 87900 555 1/000=
33415 41697 72707 10017 21013 39659 40059 52024 78582 85930 555 1/101=
33429 41598 62507 10018 21038 39634 40058 52022 72722 84330 333 84921 555 1/101=
33466 41450 81805 11009 21019 39873 40064 52015 72272 86530 333 85717 555 1/102=
33506 41596 81104 11031 21038 39890 40092 52010 78582 889// 555 1/101=
33526 42684 62606 10039 21039 39731 40071 52021 86500 333 86646 555 1/001=
33536 42597 72603 10023 21026 40067 52026 87300 555 1/001=
33548 42599 62202 10050 21035 40071 52023 85530 555 1/000=
33557 42583 52604 10035 21052 40068 52026 85500 555 1/100=
33562 42563 72505 10028 21038 39697 40059 52021 87900 333 87923 555 1/000=
33577 42563 31101 11023 21052 40071 52015 82530 555 1/108=
33587 42997 01502 11030 21050 39813 40083 52021 555 1/109=
33614 41460 82302 10001 21019 39981 40086 52017 70272 886// 333 88713 555 1/101=
33631 42697 71402 10047 21004 39936 40081 52010 85530 333 85643 555 1/100=
33651 42598 32701 10036 21053 40070 51023 82530 555 1/101=
33658 42784 32902 10051 21049 39773 40071 52022 83500 333 83650 555 1/102=
33663 42597 30000 10058 21032 39975 40071 52020 82530 555 1/100=
33711 41360 82105 11008 21018 39876 40090 52018 70282 886// 333 88707 555 1/101=
33761 41940 01903 11036 21044 39863 40093 52018 71000 555 1/107=
33791 41297 82003 11009 21022 39941 40095 52018 72272 8772/ 333 87706 555 1/000=
33837 42965 63001 11001 21023 30055 40108 53022 82031 555 1/000=
33902 42597 30000 10014 21008 30038 40105 52017 83400 555 1/101=
34056 12996 21004 11139 21153 39947 40225 50002 60002 80001 333   11095 91111 555   51153 53011=
34072 12497 81204 11156 21171 39874 40274 52007 60002 886// 333   11135 88713 555   51179 53008=
34083 11462 80603 11167 21182 30174 40264 50007 69902 77172 8872/ 333   11164 88713 555   51185 53005=
34139 12597 70909 11071 21129 39917 40167 58006 69902 87500 333 11059 91012 91114 555 51104 53015=
34152 12998 21004 11126 21144 30008 40214 55002 60002 80001 333   11080 91110 555   51134 53011=
34163 12498 80907 11160 21172 39989 40261 53007 60002 8255/ 333   11148 91011 91111 555   51182 53011=
34171 11460 60705 11171 21190 30054 40266 52007 69922 77172 86600 333   11148 86711 555   51183 53005=
34186 11350 80804 11162 21172 30122 40271 53003 69902 77172 886// 333   11162 88708 555   51213 53009=
34199 12997 81103 11145 21155 30135 40275 52004 60002 8005/ 333   11145 93599 555   51200 53007=
34231 12598 81104 11050 21086 39998 40146 58012 60002 885// 333 11047 88627 91111 555 51082 53013=
34273 11496 80504 11150 21165 30188 40255 51002 69902 77177 8872/ 333   11139 88611 555   51188 53007=
34300 41335 81205 11059 21070 39914 40112 53010 78587 889// 333 86707 555 1/104=
34391 11496 80805 11124 21136 30209 40243 50005 69902 77172 887// 333   11124 88519 91110 555   51199 53010=
34415 42497 81403 11054 21068 30017 40117 53008 886// 555 1/105=
34504 41350 81903 11026 21036 39916 40099 52014 77172 8772/ 333 86708 555 1/101=
34545 11598 81008 11098 21124 30040 40158 53005 69902 73632 885// 333 11083 91013 91113 555 51102 53013=
34601 41459 71502 11021 21024 39968 40108 52020 71082 87500 333 87613 555 1/101=
34644 11596 81004 11069 21086 30059 40139 52008 69902 78582 889// 333 11068 91110 555 51080 53013=
34646 12498 80907 11072 21101 30067 40152 51009 69922 886// 333 11068 91012 91112 555 51078 53012=
34691 32998 30501 11080 21131 30207 40194 52011 83030 333 11058=
34712 41496 80905 11040 21045 30021 40110 52020 77177 8772/ 333 88716 555 1/103=
34720 11396 80703 11053 21062 30072 40113 51012 60042 77172 8872/ 333 11046 93401 555 51046 53012=
34727 11496 81101 11017 21021 30076 40106 52017 60062 78588 883// 333 11016 93402 555 51023 53013=
34740 11596 81204 11059 21068 30040 40141 53021 69992 78532 889// 333 11055 91110 555 51058 53011=
34824 11496 81401 11001 21011 30093 40098 52020 60012 76666 887// 333 11001 93401 555 51009 53010=
34838 11597 81002 11013 21028 30017 40115 51019 60022 78082 889// 333 11013 93402 555 51025 53010=
34880 11495 80405 11037 21048 30188 40161 53009 69902 77772 886// 333 11023 91110 555 51079 53010=
35067 329// 00000 11240 21259 30052 40359 52005 333 11155=
35085 329// 00101 11243 21279 39857 40387 52003 333 11144=
35108 325// 80502 11174 21208 30245 40295 52014 885// 333 11141=
35138 12397 60403 11200 21228 39972 40361 52009 69902 86700 333   11172 86609 555   51207 53005=
35188 319// 00401 11206 21246 39901 40378 52005 70400 333 11084=
35217 325// 80805 11111 21147 30227 40268 53009 885// 333 11110=
35229 329// 21202 11183 21209 30027 40324 53003 82030 333 11160=
35302 /29// 20705 11117 21144 30238 40260 52003 82070 333 11116 555 69902=
35357 329// 40000 11206 21239 39870 40347 52003 84050 333 11153=
35394 32998 20000 11142 21181 39635 40357 52005 80001 333 11044=
35406 /29// 01204 11097 21109 30234 40236 52005 333 11079 555 69902=
35416 /16// 70604 11099 21121 30135 40261 53004 70272 86570 333 11090 555 69902=
35426 325// 60505 11157 21196 39983 40295 52004 86500 333 11122=
35497 325// 80202 11080 21120 39506 40334 52006 885// 333 11040=
35532 /1993 71112 11168 21194 39759 40286 52001 73932 80003 333 11148 91016 91116 555 69942=
35671 32998 60903 11133 21165 39871 40328 52007 85041 333 11120=
35700 /2498 81007 11066 21090 30217 40193 53009 887// 333 11040 555 69902=
35746 325// 80507 11098 21129 30195 40266 53003 885// 333 11098=
35796 32997 00403 11136 21160 39884 40347 52010 333 11085=
35849 32998 80702 11066 21112 30154 40243 54000 8803/ 333 11066=
35925 /15// 80909 11057 21079 40175 53004 73732 8802/ 333 11048 555 60032=
35953 329// 60705 11094 21129 30135 40271 53003 80002 333 11080=
35969 329// 40905 11088 21132 30108 40289 52003 84040 333 11052=
36003 /1997 80000 11187 21217 30236 40401 52013 77172 8802/ 333 11149 555 69932=
36020 42998 20502 11241 21264 30171 40394 52009 80001=
36021 42999 03501 11258 21288 30196 40398 52006=
36022 42998 00502 11200 21222 30103 40390 52006=
36038 42598 80000 11202 21231 39899 40383 50002 885//=
36058 42999 62601 11158 21186 39825 40386 54000 80009=
36152 329// 20000 11245 21272 30178 40386 52006 80002 333 11169=
36177 329// 60000 11179 21211 30110 40377 52005 85031 333 11115=
36208 329// 00901 11218 21246 39336 40408 52003 333 11085=
36229 42999 00000 11256 21290 39129 40429 52003=
36259 42999 00801 11316 21350 38235 48536 51002=
36397 329// 02103 11153 21199 39770 40370 52010 333 11117=
36428 329// 00201 11264 21274 39842 40401 51003 333 11178 95090=
36535 329// 00000 11264 21305 39709 40415 53008 333 11161=
36639 329// 70000 11187 21216 39704 40358 53011 87070 333 11130=
36821 328// 80702 11156 21181 39817 40342 52005 8802/ 333 11090=
36859 329// 70000 11114 21137 39526 40351 52019 85075 333 11030=
36870 329// 80000 11001 21057 39259 40281 54000 80002 333 10042=
36911 329// 80903 11014 21043 39300 40293 52001 8805/ 333 10066=
36974 329// 71101 11102 21146 38039 48609 52007 87030 333 11050=
36982 329// 60000 11186 21212 36531 47147 52016 86050 555 11075=
37018 11596 82105 10082 20063 30042 40117 51027 60162 78082 889// 333 10088 91010 91112 555 50080 53012=
38001 329// 50706 11012 21041 30144 40114 52015 85030 333 10008=
38062 329// 70703 11068 21106 30083 40252 54000 87030 333 11023=
38069 329// 00000 11028 21085 30042 40238 58003 333 10067=
38178 329// 00802 10027 21075 39914 40203 53012 333 10073 555 53005=
38196 32998 03202 10021 21078 39266 40250 51004 333 10072=
38198 329// 00601 10028 21017 39974 40230 58003 333 10101=
38222 32997 80501 11122 21157 39723 40317 52006 8807/ 333 11040=
38232 32998 01501 10012 21007 30021 40121 53012 333 10051=
38262 329// 00702 11008 21062 30095 40179 58004 333 10059=
38264 31996 00503 10002 21019 30071 40166 52004 71000 333 10062=
38328 329// 01102 10033 21038 39509 40239 52005 333 10085=
38334 32998 20902 10028 21057 39288 40252 52008 80002 333 10095=
38341 32997 82301 11036 21068 39475 40283 52004 82042 333 10047=
38343 32997 60000 11049 21094 39418 40289 54000 86030 333 10027=
38345 32998 60801 11015 21063 38841 48528 52005 85032 333 10054=
38353 329// 80902 10016 21035 39368 40280 54000 8803/ 333 10066=
38392 11996 21104 10035 21012 30053 40157 53006 6//// 710// 80001 333 10118 555 530//=
38396 31995 00903 10046 21039 30044 40169 52006 70500 333 10111=
38403 329// 00102 10054 21072 30041 40162 53005 333 10125 555 53005=
38413 329// 00802 10062 21017 39920 40211 53002 333 10102 555 53008=
38439 32998 01604 10047 20003 39886 40225 53005 333 10080=
38457 32997 01001 10075 21044 39637 40223 52007 333 10172 555 53006=
38462 329// 00000 10020 21052 38814 48541 52018 333 10058=
38507 12996 21902 10072 20000 30013 40115 52012 6//// 80001 333 10152 555 530//=
38511 12998 00000 10069 20026 39985 40126 52014 6//// 333 10156 555 530//=
38565 329// 01802 10146 20015 3//// 4//// 5//// 333 10180=
38579 329// 00000 10051 21014 39785 40205 54000 333 10118 555 53004=
38583 32997 01402 10055 21003 39908 40232 52006 333 10132 555 53007=
38613 329// 00202 10040 21006 40291 52008 333 10067=
38616 325// 50901 10020 21017 39265 40302 53012 85500 333 10057=
38647 12997 00904 10107 20030 30068 40110 52009 6//// 333 10191 555 530//=
38683 32997 00000 10089 21054 39910 40185 53010 333 10176 555 53006=
38696 329// 00000 10071 21007 39365 40220 53012 333 10182 555 53007=
38750 12997 00704 10131 21033 30125 40097 53007 6//// 333 10230 555 530//=
38763 12997 00000 10088 20067 30019 40123 58002 6//// 333 10150 555 530//=
38799 12997 01403 10102 21036 39930 40159 54000 6//// 333 10205 555 530//=
38895 12996 01502 10127 21047 39874 40158 53001 6//// 333 10220 555 530//=
38927 31957 01203 10071 21005 39852 40230 51012 70500 333 10175=30054 42998 20000 11459 21481 30157 40450 52009 80001


SMUS30 KWBC 191500
AAXX 19154
37682 32997 70000 10018 20007 38042 48431 52007 87040 555 10031=
37717 32595 81702 10003 21027 38007 48434 52016 8653/ 555 10055=
37788 32697 80803 10090 20013 39116 40096 52020 8657/=